Floweree, MT

10:04 MST le 23 novembre 2014 (GMT -0700)
Helena Regional | Change Station
CLOSE
Current Station
Aéroport
Location: Helena,
Altitude: 3865 ft
Stations météo à proximité

Alt. 3865 ft 46.60 °N, 111.99 °W | Updated 11 minutes ago

Nuageux
Nuageux
37 ° F
Paraît 29 ° F
N
13
Vent Variable Vent de ONO

Aujourd'hui
Haut(e) -- | Bas -- ° F
--% Risque de précip.
Hier
Haut(e) -- | Bas -- ° F
Precip. -- pouce
7:41 AM 4:40 PM
Nouvelle lune, 2% visible
Pression 30.11 pouce
Visibilité 10.0 Miles terrestres
Nuages Nuages épars 5000 ft
Refroidissement éolien 29 ° F
Point de rosée 18 ° F
Humidité 46%
Précipitations 0.00 pouce
Profondeur de la couche neigeuse Non disponible.
UV 1 sur 12
Pollen .10 sur 12
Qualité de l'air Non disponible.
Flu Activity Non disponible.
METAR KHLN 231653Z 30011KT 10SM SCT050 03/M08 A2999 RMK AO2 PK WND 29028/1609 SLP194 T00281078

More Conditions Fewer Conditions

Pression 30.11 pouce
Visibilité 10.0 Miles terrestres
Nuages Nuages épars 5000 ft
Refroidissement éolien 29 ° F
Point de rosée 18 ° F
Humidité 46%
Précipitations 0.00 pouce
Profondeur de la couche neigeuse Non disponible.
UV 1 sur 12
Pollen .10 sur 12
Qualité de l'air Non disponible.
Flu Activity Non disponible.
METAR KHLN 231653Z 30011KT 10SM SCT050 03/M08 A2999 RMK AO2 PK WND 29028/1609 SLP194 T00281078

More Conditions Fewer Conditions

10-Day Weather Forecast

Almanac

Astronomie

Nov. 23, 2014 Lever Coucher
Temps réel
Crépuscule civil
Crépuscule nautique
Crépuscule astronomique
Lune
Durée de lumière visible
Longueur du jour
Tomorrow will be .
, % of the Moon is Illuminated

Extrêmes aujourd'hui

State Highs State Lows

Community

WunderPhotos

Upload Photos

1,773,098 Photos téléchargées !

WunderBlogs® & News

Nearby

Qualité de l'air

  Qualité de l'air Indice de la qualité de l'air Polluant
Not available.

Épaisseur de neige

Station Depth Altitude

Activité sismique

Ville Distance Mag. Time & Date
Minimum magnitude displayed is 2.5.

Températures des eaux côtières

Lieu Température

Stations météo à proximité